sensor_id;sensor_type;location;lat;lon;timestamp;pressure;altitude;pressure_sealevel;temperature;humidity
62025;BME280;47978;49.118;12.146;2023-10-31T00:03:15;95722.97;;;11.82;100.00
62025;BME280;47978;49.118;12.146;2023-10-31T00:07:17;95730.41;;;11.93;100.00
62025;BME280;47978;49.118;12.146;2023-10-31T00:11:19;95732.63;;;12.04;100.00
62025;BME280;47978;49.118;12.146;2023-10-31T00:15:21;95730.88;;;11.96;100.00
62025;BME280;47978;49.118;12.146;2023-10-31T00:19:23;95744.06;;;12.18;100.00
62025;BME280;47978;49.118;12.146;2023-10-31T00:23:24;95735.84;;;12.06;100.00
62025;BME280;47978;49.118;12.146;2023-10-31T00:27:26;95743.25;;;11.70;100.00
62025;BME280;47978;49.118;12.146;2023-10-31T00:31:31;95757.88;;;11.70;100.00
62025;BME280;47978;49.118;12.146;2023-10-31T00:35:33;95768.25;;;11.74;100.00
62025;BME280;47978;49.118;12.146;2023-10-31T00:39:34;95769.69;;;11.67;100.00
62025;BME280;47978;49.118;12.146;2023-10-31T00:43:36;95769.31;;;11.53;100.00
62025;BME280;47978;49.118;12.146;2023-10-31T00:47:38;95769.72;;;11.39;100.00
62025;BME280;47978;49.118;12.146;2023-10-31T00:51:40;95770.91;;;11.54;100.00
62025;BME280;47978;49.118;12.146;2023-10-31T00:55:41;95773.34;;;11.56;100.00
62025;BME280;47978;49.118;12.146;2023-10-31T00:59:43;95774.22;;;11.60;100.00
62025;BME280;47978;49.118;12.146;2023-10-31T01:03:46;95768.44;;;11.65;100.00
62025;BME280;47978;49.118;12.146;2023-10-31T01:07:47;95764.31;;;11.59;100.00
62025;BME280;47978;49.118;12.146;2023-10-31T01:11:49;95766.78;;;11.64;100.00
62025;BME280;47978;49.118;12.146;2023-10-31T01:15:50;95773.34;;;11.71;100.00
62025;BME280;47978;49.118;12.146;2023-10-31T01:19:53;95777.53;;;11.65;100.00
62025;BME280;47978;49.118;12.146;2023-10-31T01:23:55;95780.03;;;11.70;100.00
62025;BME280;47978;49.118;12.146;2023-10-31T01:27:56;95780.22;;;11.62;100.00
62025;BME280;47978;49.118;12.146;2023-10-31T01:31:58;95778.41;;;11.54;100.00
62025;BME280;47978;49.118;12.146;2023-10-31T01:36:07;95774.72;;;11.49;100.00
62025;BME280;47978;49.118;12.146;2023-10-31T01:40:11;95782.56;;;11.32;100.00
62025;BME280;47978;49.118;12.146;2023-10-31T01:44:13;95780.88;;;11.43;100.00
62025;BME280;47978;49.118;12.146;2023-10-31T01:48:14;95792.66;;;11.40;100.00
62025;BME280;47978;49.118;12.146;2023-10-31T01:52:17;95788.84;;;11.44;100.00
62025;BME280;47978;49.118;12.146;2023-10-31T01:56:19;95790.44;;;11.45;100.00
62025;BME280;47978;49.118;12.146;2023-10-31T02:00:21;95785.88;;;11.37;100.00
62025;BME280;47978;49.118;12.146;2023-10-31T02:04:23;95793.00;;;11.38;100.00
62025;BME280;47978;49.118;12.146;2023-10-31T02:08:26;95793.00;;;11.38;100.00
62025;BME280;47978;49.118;12.146;2023-10-31T02:12:31;95796.03;;;11.33;100.00
62025;BME280;47978;49.118;12.146;2023-10-31T02:16:32;95793.28;;;11.33;100.00
62025;BME280;47978;49.118;12.146;2023-10-31T02:20:34;95800.78;;;11.33;100.00
62025;BME280;47978;49.118;12.146;2023-10-31T02:24:37;95797.66;;;11.34;100.00
62025;BME280;47978;49.118;12.146;2023-10-31T02:28:39;95811.28;;;11.27;100.00
62025;BME280;47978;49.118;12.146;2023-10-31T02:37:25;95821.38;;;11.35;100.00
62025;BME280;47978;49.118;12.146;2023-10-31T02:41:27;95830.44;;;11.20;100.00
62025;BME280;47978;49.118;12.146;2023-10-31T02:45:29;95828.22;;;11.25;100.00
62025;BME280;47978;49.118;12.146;2023-10-31T02:49:30;95838.50;;;11.25;100.00
62025;BME280;47978;49.118;12.146;2023-10-31T02:53:32;95838.50;;;11.25;100.00
62025;BME280;47978;49.118;12.146;2023-10-31T02:57:34;95842.00;;;11.10;100.00
62025;BME280;47978;49.118;12.146;2023-10-31T03:01:36;95837.84;;;11.16;100.00
62025;BME280;47978;49.118;12.146;2023-10-31T03:05:38;95831.94;;;11.17;100.00
62025;BME280;47978;49.118;12.146;2023-10-31T03:09:39;95843.38;;;11.16;100.00
62025;BME280;47978;49.118;12.146;2023-10-31T03:18:26;95856.53;;;11.07;100.00
62025;BME280;47978;49.118;12.146;2023-10-31T03:22:27;95861.97;;;11.03;100.00
62025;BME280;47978;49.118;12.146;2023-10-31T03:26:29;95872.78;;;11.08;100.00
62025;BME280;47978;49.118;12.146;2023-10-31T03:30:30;95873.13;;;11.07;100.00
62025;BME280;47978;49.118;12.146;2023-10-31T03:34:33;95870.16;;;10.99;100.00
62025;BME280;47978;49.118;12.146;2023-10-31T03:38:34;95879.47;;;11.07;100.00
62025;BME280;47978;49.118;12.146;2023-10-31T03:42:36;95885.00;;;11.07;100.00
62025;BME280;47978;49.118;12.146;2023-10-31T03:46:38;95879.13;;;11.09;100.00
62025;BME280;47978;49.118;12.146;2023-10-31T03:50:40;95880.16;;;11.16;100.00
62025;BME280;47978;49.118;12.146;2023-10-31T03:54:42;95889.47;;;11.12;100.00
62025;BME280;47978;49.118;12.146;2023-10-31T03:58:43;95892.84;;;11.05;100.00
62025;BME280;47978;49.118;12.146;2023-10-31T04:02:45;95898.06;;;10.82;100.00
62025;BME280;47978;49.118;12.146;2023-10-31T04:06:48;95910.72;;;10.83;100.00
62025;BME280;47978;49.118;12.146;2023-10-31T04:10:49;95898.16;;;10.61;100.00
62025;BME280;47978;49.118;12.146;2023-10-31T04:14:51;95916.50;;;10.53;100.00
62025;BME280;47978;49.118;12.146;2023-10-31T04:18:52;95914.06;;;10.40;100.00
62025;BME280;47978;49.118;12.146;2023-10-31T04:22:55;95916.06;;;10.18;100.00
62025;BME280;47978;49.118;12.146;2023-10-31T04:26:56;95932.78;;;10.22;100.00
62025;BME280;47978;49.118;12.146;2023-10-31T04:30:58;95933.09;;;10.08;100.00
62025;BME280;47978;49.118;12.146;2023-10-31T04:34:59;95934.78;;;10.00;100.00
62025;BME280;47978;49.118;12.146;2023-10-31T04:39:02;95942.19;;;10.21;100.00
62025;BME280;47978;49.118;12.146;2023-10-31T04:43:04;95944.63;;;10.22;100.00
62025;BME280;47978;49.118;12.146;2023-10-31T04:47:05;95950.84;;;10.19;100.00
62025;BME280;47978;49.118;12.146;2023-10-31T04:51:07;95938.03;;;10.14;100.00
62025;BME280;47978;49.118;12.146;2023-10-31T04:55:10;95943.44;;;10.11;100.00
62025;BME280;47978;49.118;12.146;2023-10-31T04:59:11;95937.84;;;10.20;100.00
62025;BME280;47978;49.118;12.146;2023-10-31T05:03:13;95940.00;;;10.14;100.00
62025;BME280;47978;49.118;12.146;2023-10-31T05:07:18;95946.22;;;10.11;100.00
62025;BME280;47978;49.118;12.146;2023-10-31T05:11:21;95950.16;;;9.89;100.00
62025;BME280;47978;49.118;12.146;2023-10-31T05:15:23;95944.56;;;9.98;100.00
62025;BME280;47978;49.118;12.146;2023-10-31T05:19:24;95962.63;;;10.07;100.00
62025;BME280;47978;49.118;12.146;2023-10-31T05:23:26;95976.25;;;9.79;100.00
62025;BME280;47978;49.118;12.146;2023-10-31T05:27:28;95982.22;;;10.02;100.00
62025;BME280;47978;49.118;12.146;2023-10-31T05:31:34;95987.66;;;9.90;100.00
62025;BME280;47978;49.118;12.146;2023-10-31T05:35:35;95995.53;;;10.00;100.00
62025;BME280;47978;49.118;12.146;2023-10-31T05:39:37;96005.06;;;9.90;100.00
62025;BME280;47978;49.118;12.146;2023-10-31T05:43:40;96018.50;;;9.92;100.00
62025;BME280;47978;49.118;12.146;2023-10-31T05:47:41;96032.47;;;9.75;100.00
62025;BME280;47978;49.118;12.146;2023-10-31T05:51:43;96032.31;;;9.92;100.00
62025;BME280;47978;49.118;12.146;2023-10-31T05:55:44;96037.22;;;9.86;100.00
62025;BME280;47978;49.118;12.146;2023-10-31T05:59:47;96045.38;;;9.83;100.00
62025;BME280;47978;49.118;12.146;2023-10-31T06:03:48;96056.81;;;9.73;100.00
62025;BME280;47978;49.118;12.146;2023-10-31T06:07:50;96067.53;;;9.74;100.00
62025;BME280;47978;49.118;12.146;2023-10-31T06:11:51;96067.66;;;9.78;100.00
62025;BME280;47978;49.118;12.146;2023-10-31T06:15:54;96080.31;;;9.79;100.00
62025;BME280;47978;49.118;12.146;2023-10-31T06:20:01;96091.72;;;9.77;100.00
62025;BME280;47978;49.118;12.146;2023-10-31T06:24:03;96107.66;;;9.72;100.00
62025;BME280;47978;49.118;12.146;2023-10-31T06:28:04;96106.50;;;9.73;100.00
62025;BME280;47978;49.118;12.146;2023-10-31T06:32:07;96127.97;;;9.67;100.00
62025;BME280;47978;49.118;12.146;2023-10-31T06:36:09;96134.50;;;9.62;100.00
62025;BME280;47978;49.118;12.146;2023-10-31T06:40:10;96147.91;;;9.73;100.00
62025;BME280;47978;49.118;12.146;2023-10-31T06:44:12;96145.25;;;9.55;100.00
62025;BME280;47978;49.118;12.146;2023-10-31T06:48:15;96164.25;;;9.57;100.00
62025;BME280;47978;49.118;12.146;2023-10-31T06:52:16;96172.81;;;9.64;100.00
62025;BME280;47978;49.118;12.146;2023-10-31T06:56:18;96178.81;;;9.66;100.00
62025;BME280;47978;49.118;12.146;2023-10-31T07:00:19;96181.13;;;9.55;100.00
62025;BME280;47978;49.118;12.146;2023-10-31T07:04:22;96180.75;;;9.65;100.00
62025;BME280;47978;49.118;12.146;2023-10-31T07:08:24;96180.38;;;9.76;100.00
62025;BME280;47978;49.118;12.146;2023-10-31T07:12:25;96185.31;;;9.61;100.00
62025;BME280;47978;49.118;12.146;2023-10-31T07:16:27;96188.66;;;9.76;100.00
62025;BME280;47978;49.118;12.146;2023-10-31T07:20:30;96181.22;;;9.97;100.00
62025;BME280;47978;49.118;12.146;2023-10-31T07:24:31;96182.84;;;9.98;100.00
62025;BME280;47978;49.118;12.146;2023-10-31T07:28:33;96183.56;;;10.16;100.00
62025;BME280;47978;49.118;12.146;2023-10-31T07:32:34;96187.56;;;10.19;100.00
62025;BME280;47978;49.118;12.146;2023-10-31T07:36:37;96174.72;;;10.23;100.00
62025;BME280;47978;49.118;12.146;2023-10-31T07:40:39;96169.53;;;10.21;100.00
62025;BME280;47978;49.118;12.146;2023-10-31T07:44:40;96166.91;;;10.25;100.00
62025;BME280;47978;49.118;12.146;2023-10-31T07:48:42;96174.75;;;10.44;100.00
62025;BME280;47978;49.118;12.146;2023-10-31T07:52:45;96179.50;;;10.55;100.00
62025;BME280;47978;49.118;12.146;2023-10-31T07:56:46;96176.69;;;10.43;99.03
62025;BME280;47978;49.118;12.146;2023-10-31T08:00:47;96181.97;;;10.57;99.15
62025;BME280;47978;49.118;12.146;2023-10-31T08:04:49;96174.13;;;10.38;99.41
62025;BME280;47978;49.118;12.146;2023-10-31T08:08:52;96172.09;;;10.68;99.07
62025;BME280;47978;49.118;12.146;2023-10-31T08:12:53;96160.91;;;10.65;98.08
62025;BME280;47978;49.118;12.146;2023-10-31T08:16:55;96166.78;;;10.96;97.84
62025;BME280;47978;49.118;12.146;2023-10-31T08:20:56;96180.94;;;10.95;96.50
62025;BME280;47978;49.118;12.146;2023-10-31T08:24:59;96181.53;;;11.00;96.33
62025;BME280;47978;49.118;12.146;2023-10-31T08:29:01;96190.00;;;11.16;95.83
62025;BME280;47978;49.118;12.146;2023-10-31T08:33:02;96202.00;;;11.20;95.20
62025;BME280;47978;49.118;12.146;2023-10-31T08:37:04;96204.63;;;11.05;94.08
62025;BME280;47978;49.118;12.146;2023-10-31T08:41:07;96220.13;;;10.97;94.39
62025;BME280;47978;49.118;12.146;2023-10-31T08:45:08;96230.00;;;10.86;93.93
62025;BME280;47978;49.118;12.146;2023-10-31T08:49:10;96218.19;;;10.97;93.01
62025;BME280;47978;49.118;12.146;2023-10-31T08:53:11;96218.97;;;10.98;93.46
62025;BME280;47978;49.118;12.146;2023-10-31T08:57:14;96218.22;;;11.10;92.53
62025;BME280;47978;49.118;12.146;2023-10-31T09:01:15;96238.84;;;10.79;92.42
62025;BME280;47978;49.118;12.146;2023-10-31T09:05:17;96248.47;;;10.73;90.45
62025;BME280;47978;49.118;12.146;2023-10-31T09:09:18;96263.13;;;10.73;92.34
62025;BME280;47978;49.118;12.146;2023-10-31T09:13:21;96273.69;;;10.92;91.58
62025;BME280;47978;49.118;12.146;2023-10-31T09:17:23;96270.31;;;10.87;90.69
62025;BME280;47978;49.118;12.146;2023-10-31T09:21:24;96266.50;;;10.79;91.10
62025;BME280;47978;49.118;12.146;2023-10-31T09:25:26;96284.91;;;10.54;90.49
62025;BME280;47978;49.118;12.146;2023-10-31T09:29:28;96279.97;;;10.60;92.54
62025;BME280;47978;49.118;12.146;2023-10-31T09:33:30;96297.13;;;10.44;93.22
62025;BME280;47978;49.118;12.146;2023-10-31T09:37:32;96301.06;;;10.64;92.85
62025;BME280;47978;49.118;12.146;2023-10-31T09:41:34;96301.16;;;10.76;93.34
62025;BME280;47978;49.118;12.146;2023-10-31T09:45:36;96293.66;;;10.98;92.70
62025;BME280;47978;49.118;12.146;2023-10-31T09:49:38;96300.69;;;10.74;92.51
62025;BME280;47978;49.118;12.146;2023-10-31T09:53:41;96285.78;;;10.88;92.20
62025;BME280;47978;49.118;12.146;2023-10-31T09:57:42;96263.72;;;11.00;90.16
62025;BME280;47978;49.118;12.146;2023-10-31T10:01:45;96245.84;;;10.97;90.40
62025;BME280;47978;49.118;12.146;2023-10-31T10:05:47;96245.78;;;10.85;91.05
62025;BME280;47978;49.118;12.146;2023-10-31T10:09:49;96252.81;;;10.83;90.69
62025;BME280;47978;49.118;12.146;2023-10-31T10:13:51;96260.53;;;10.89;91.22
62025;BME280;47978;49.118;12.146;2023-10-31T10:17:54;96280.31;;;11.00;87.65
62025;BME280;47978;49.118;12.146;2023-10-31T10:21:56;96282.16;;;10.96;89.02
62025;BME280;47978;49.118;12.146;2023-10-31T10:25:58;96281.47;;;10.78;89.08
62025;BME280;47978;49.118;12.146;2023-10-31T10:30:00;96277.75;;;10.95;89.62
62025;BME280;47978;49.118;12.146;2023-10-31T10:34:03;96286.00;;;10.83;87.60
62025;BME280;47978;49.118;12.146;2023-10-31T10:38:07;96307.63;;;10.60;88.92
62025;BME280;47978;49.118;12.146;2023-10-31T10:42:11;96317.41;;;10.57;91.35
62025;BME280;47978;49.118;12.146;2023-10-31T10:46:14;96323.19;;;10.64;92.72
62025;BME280;47978;49.118;12.146;2023-10-31T10:50:18;96319.91;;;10.41;93.28
62025;BME280;47978;49.118;12.146;2023-10-31T10:54:23;96327.34;;;10.49;93.03
62025;BME280;47978;49.118;12.146;2023-10-31T10:58:27;96320.69;;;10.50;93.71
62025;BME280;47978;49.118;12.146;2023-10-31T11:02:35;96322.59;;;10.29;93.91
62025;BME280;47978;49.118;12.146;2023-10-31T11:06:38;96319.47;;;10.39;94.89
62025;BME280;47978;49.118;12.146;2023-10-31T11:10:40;96326.53;;;10.49;95.75
62025;BME280;47978;49.118;12.146;2023-10-31T11:14:42;96335.75;;;10.23;95.95
62025;BME280;47978;49.118;12.146;2023-10-31T11:18:44;96325.19;;;10.34;94.75
62025;BME280;47978;49.118;12.146;2023-10-31T11:22:47;96327.88;;;10.43;94.43
62025;BME280;47978;49.118;12.146;2023-10-31T11:26:51;96337.47;;;10.45;94.33
62025;BME280;47978;49.118;12.146;2023-10-31T11:30:53;96343.56;;;10.60;93.60
62025;BME280;47978;49.118;12.146;2023-10-31T11:34:54;96351.16;;;10.33;92.50
62025;BME280;47978;49.118;12.146;2023-10-31T11:39:11;96352.47;;;10.65;90.91
62025;BME280;47978;49.118;12.146;2023-10-31T11:43:12;96355.25;;;10.65;88.88
62025;BME280;47978;49.118;12.146;2023-10-31T11:47:15;96358.97;;;10.90;88.71
62025;BME280;47978;49.118;12.146;2023-10-31T11:51:16;96347.75;;;10.87;87.79
62025;BME280;47978;49.118;12.146;2023-10-31T11:55:19;96347.75;;;10.87;87.62
62025;BME280;47978;49.118;12.146;2023-10-31T11:59:21;96345.34;;;10.85;87.54
62025;BME280;47978;49.118;12.146;2023-10-31T12:03:22;96328.75;;;10.85;89.01
62025;BME280;47978;49.118;12.146;2023-10-31T12:07:24;96332.06;;;10.99;88.79
62025;BME280;47978;49.118;12.146;2023-10-31T12:11:27;96333.53;;;10.76;88.22
62025;BME280;47978;49.118;12.146;2023-10-31T12:15:28;96335.91;;;10.86;89.65
62025;BME280;47978;49.118;12.146;2023-10-31T12:19:30;96333.53;;;10.76;88.03
62025;BME280;47978;49.118;12.146;2023-10-31T12:23:32;96325.91;;;11.15;89.45
62025;BME280;47978;49.118;12.146;2023-10-31T12:27:44;96329.28;;;10.99;88.57
62025;BME280;47978;49.118;12.146;2023-10-31T12:31:46;96336.53;;;11.13;89.34
62025;BME280;47978;49.118;12.146;2023-10-31T12:35:48;96342.94;;;11.05;88.49
62025;BME280;47978;49.118;12.146;2023-10-31T12:39:50;96353.31;;;11.08;89.25
62025;BME280;47978;49.118;12.146;2023-10-31T12:43:53;96361.19;;;10.76;87.58
62025;BME280;47978;49.118;12.146;2023-10-31T12:48:01;96373.19;;;10.80;89.49
62025;BME280;47978;49.118;12.146;2023-10-31T12:52:03;96375.63;;;10.82;88.71
62025;BME280;47978;49.118;12.146;2023-10-31T12:56:06;96378.53;;;10.85;88.56
62025;BME280;47978;49.118;12.146;2023-10-31T13:00:09;96380.88;;;10.95;85.32
62025;BME280;47978;49.118;12.146;2023-10-31T13:04:11;96387.16;;;10.84;86.82
62025;BME280;47978;49.118;12.146;2023-10-31T13:08:13;96385.41;;;11.00;85.52
62025;BME280;47978;49.118;12.146;2023-10-31T13:12:15;96384.88;;;10.86;87.16
62025;BME280;47978;49.118;12.146;2023-10-31T13:16:18;96396.25;;;10.84;88.72
62025;BME280;47978;49.118;12.146;2023-10-31T13:20:19;96400.72;;;10.97;88.52
62025;BME280;47978;49.118;12.146;2023-10-31T13:24:21;96395.00;;;11.02;87.97
62025;BME280;47978;49.118;12.146;2023-10-31T13:28:23;96411.59;;;11.23;88.19
62025;BME280;47978;49.118;12.146;2023-10-31T13:32:25;96417.94;;;11.24;87.17
62025;BME280;47978;49.118;12.146;2023-10-31T13:36:27;96424.66;;;11.23;87.29
62025;BME280;47978;49.118;12.146;2023-10-31T13:40:29;96423.22;;;11.17;86.38
62025;BME280;47978;49.118;12.146;2023-10-31T13:44:30;96423.53;;;11.15;87.20
62025;BME280;47978;49.118;12.146;2023-10-31T13:48:33;96421.31;;;11.09;88.45
62025;BME280;47978;49.118;12.146;2023-10-31T13:52:34;96426.72;;;11.26;88.18
62025;BME280;47978;49.118;12.146;2023-10-31T13:56:36;96432.94;;;11.23;88.63
62025;BME280;47978;49.118;12.146;2023-10-31T14:00:37;96437.75;;;11.35;88.31
62025;BME280;47978;49.118;12.146;2023-10-31T14:04:40;96441.47;;;11.39;87.69
62025;BME280;47978;49.118;12.146;2023-10-31T14:08:42;96451.25;;;11.36;88.61
62025;BME280;47978;49.118;12.146;2023-10-31T14:12:43;96450.44;;;11.36;88.55
62025;BME280;47978;49.118;12.146;2023-10-31T14:16:46;96455.63;;;11.37;88.86
62025;BME280;47978;49.118;12.146;2023-10-31T14:20:49;96461.47;;;11.44;88.59
62025;BME280;47978;49.118;12.146;2023-10-31T14:24:50;96460.38;;;11.37;89.85
62025;BME280;47978;49.118;12.146;2023-10-31T14:28:52;96466.22;;;11.35;88.99
62025;BME280;47978;49.118;12.146;2023-10-31T14:32:53;96467.50;;;11.17;89.62
62025;BME280;47978;49.118;12.146;2023-10-31T14:36:56;96476.94;;;11.16;89.97
62025;BME280;47978;49.118;12.146;2023-10-31T14:40:58;96489.16;;;11.15;90.18
62025;BME280;47978;49.118;12.146;2023-10-31T14:44:59;96471.25;;;11.12;89.93
62025;BME280;47978;49.118;12.146;2023-10-31T14:49:01;96488.69;;;11.13;89.60
62025;BME280;47978;49.118;12.146;2023-10-31T14:53:05;96486.69;;;11.22;89.56
62025;BME280;47978;49.118;12.146;2023-10-31T14:57:06;96486.81;;;11.25;88.62
62025;BME280;47978;49.118;12.146;2023-10-31T15:01:08;96495.22;;;11.08;89.88
62025;BME280;47978;49.118;12.146;2023-10-31T15:05:09;96498.84;;;11.00;88.68
62025;BME280;47978;49.118;12.146;2023-10-31T15:09:12;96495.25;;;11.29;89.79
62025;BME280;47978;49.118;12.146;2023-10-31T15:13:13;96508.66;;;11.18;90.48
62025;BME280;47978;49.118;12.146;2023-10-31T15:17:15;96510.44;;;11.23;88.60
62025;BME280;47978;49.118;12.146;2023-10-31T15:21:16;96517.22;;;11.05;88.55
62025;BME280;47978;49.118;12.146;2023-10-31T15:25:19;96526.81;;;11.07;87.84
62025;BME280;47978;49.118;12.146;2023-10-31T15:29:21;96522.94;;;10.99;88.52
62025;BME280;47978;49.118;12.146;2023-10-31T15:33:22;96532.97;;;11.04;88.93
62025;BME280;47978;49.118;12.146;2023-10-31T15:37:24;96531.72;;;11.01;88.30
62025;BME280;47978;49.118;12.146;2023-10-31T15:41:26;96538.81;;;10.64;96.42
62025;BME280;47978;49.118;12.146;2023-10-31T15:45:28;96534.03;;;10.35;100.00
62025;BME280;47978;49.118;12.146;2023-10-31T15:49:29;96539.06;;;10.16;100.00
62025;BME280;47978;49.118;12.146;2023-10-31T15:53:31;96545.41;;;9.99;100.00
62025;BME280;47978;49.118;12.146;2023-10-31T15:57:34;96544.28;;;9.91;100.00
62025;BME280;47978;49.118;12.146;2023-10-31T16:01:35;96546.88;;;9.79;100.00
62025;BME280;47978;49.118;12.146;2023-10-31T16:05:37;96552.56;;;9.74;100.00
62025;BME280;47978;49.118;12.146;2023-10-31T16:09:38;96556.16;;;9.65;100.00
62025;BME280;47978;49.118;12.146;2023-10-31T16:13:41;96553.19;;;9.62;100.00
62025;BME280;47978;49.118;12.146;2023-10-31T16:17:42;96555.00;;;9.58;100.00
62025;BME280;47978;49.118;12.146;2023-10-31T16:21:44;96561.59;;;9.31;100.00
62025;BME280;47978;49.118;12.146;2023-10-31T16:25:46;96573.94;;;8.93;100.00
62025;BME280;47978;49.118;12.146;2023-10-31T16:29:48;96578.72;;;8.70;100.00
62025;BME280;47978;49.118;12.146;2023-10-31T16:33:50;96582.22;;;8.62;100.00
62025;BME280;47978;49.118;12.146;2023-10-31T16:37:51;96593.47;;;8.43;100.00
62025;BME280;47978;49.118;12.146;2023-10-31T16:41:53;96604.59;;;8.38;100.00
62025;BME280;47978;49.118;12.146;2023-10-31T16:45:56;96606.75;;;8.41;100.00
62025;BME280;47978;49.118;12.146;2023-10-31T16:49:57;96606.38;;;8.34;100.00
62025;BME280;47978;49.118;12.146;2023-10-31T16:53:59;96618.81;;;8.31;100.00
62025;BME280;47978;49.118;12.146;2023-10-31T16:58:00;96625.66;;;8.34;100.00
62025;BME280;47978;49.118;12.146;2023-10-31T17:02:03;96626.38;;;8.26;100.00
62025;BME280;47978;49.118;12.146;2023-10-31T17:06:05;96641.41;;;8.20;100.00
62025;BME280;47978;49.118;12.146;2023-10-31T17:10:07;96639.19;;;8.08;100.00
62025;BME280;47978;49.118;12.146;2023-10-31T17:14:09;96649.31;;;7.99;100.00
62025;BME280;47978;49.118;12.146;2023-10-31T17:18:11;96652.63;;;7.87;100.00
62025;BME280;47978;49.118;12.146;2023-10-31T17:22:13;96668.53;;;7.76;100.00
62025;BME280;47978;49.118;12.146;2023-10-31T17:26:14;96668.44;;;7.68;100.00
62025;BME280;47978;49.118;12.146;2023-10-31T17:30:16;96674.56;;;7.51;100.00
62025;BME280;47978;49.118;12.146;2023-10-31T17:34:19;96680.50;;;7.44;100.00
62025;BME280;47978;49.118;12.146;2023-10-31T17:38:21;96694.75;;;7.46;100.00
62025;BME280;47978;49.118;12.146;2023-10-31T17:42:22;96694.56;;;7.29;100.00
62025;BME280;47978;49.118;12.146;2023-10-31T17:46:26;96689.63;;;7.26;100.00
62025;BME280;47978;49.118;12.146;2023-10-31T17:50:28;96705.22;;;7.30;100.00
62025;BME280;47978;49.118;12.146;2023-10-31T17:54:30;96706.47;;;7.38;100.00
62025;BME280;47978;49.118;12.146;2023-10-31T17:58:31;96711.16;;;7.37;100.00
62025;BME280;47978;49.118;12.146;2023-10-31T18:02:33;96714.31;;;7.44;100.00
62025;BME280;47978;49.118;12.146;2023-10-31T18:06:36;96717.66;;;7.41;100.00
62025;BME280;47978;49.118;12.146;2023-10-31T18:10:37;96723.97;;;7.42;100.00
62025;BME280;47978;49.118;12.146;2023-10-31T18:14:39;96726.53;;;7.38;100.00
62025;BME280;47978;49.118;12.146;2023-10-31T18:18:40;96737.22;;;7.26;100.00
62025;BME280;47978;49.118;12.146;2023-10-31T18:22:43;96747.25;;;7.17;100.00
62025;BME280;47978;49.118;12.146;2023-10-31T18:26:44;96741.56;;;7.13;100.00
62025;BME280;47978;49.118;12.146;2023-10-31T18:30:46;96744.72;;;7.07;100.00
62025;BME280;47978;49.118;12.146;2023-10-31T18:34:47;96751.50;;;6.95;100.00
62025;BME280;47978;49.118;12.146;2023-10-31T18:38:50;96757.81;;;6.96;100.00
62025;BME280;47978;49.118;12.146;2023-10-31T18:42:52;96758.94;;;6.95;100.00
62025;BME280;47978;49.118;12.146;2023-10-31T18:46:53;96764.50;;;6.90;100.00
62025;BME280;47978;49.118;12.146;2023-10-31T18:50:54;96768.28;;;6.94;100.00
62025;BME280;47978;49.118;12.146;2023-10-31T18:54:57;96769.00;;;6.99;100.00
62025;BME280;47978;49.118;12.146;2023-10-31T18:58:59;96763.75;;;7.17;100.00
62025;BME280;47978;49.118;12.146;2023-10-31T19:03:03;96769.25;;;7.17;100.00
62025;BME280;47978;49.118;12.146;2023-10-31T19:07:05;96774.19;;;7.20;100.00
62025;BME280;47978;49.118;12.146;2023-10-31T19:11:07;96777.63;;;7.26;100.00
62025;BME280;47978;49.118;12.146;2023-10-31T19:15:09;96783.13;;;7.26;100.00
62025;BME280;47978;49.118;12.146;2023-10-31T19:19:10;96786.09;;;7.29;100.00
62025;BME280;47978;49.118;12.146;2023-10-31T19:23:12;96794.47;;;7.38;100.00
62025;BME280;47978;49.118;12.146;2023-10-31T19:27:15;96794.38;;;7.43;100.00
62025;BME280;47978;49.118;12.146;2023-10-31T19:31:17;96792.94;;;7.46;100.00
62025;BME280;47978;49.118;12.146;2023-10-31T19:35:18;96802.03;;;7.46;100.00
62025;BME280;47978;49.118;12.146;2023-10-31T19:39:20;96804.56;;;7.56;100.00
62025;BME280;47978;49.118;12.146;2023-10-31T19:43:22;96800.94;;;7.61;100.00
62025;BME280;47978;49.118;12.146;2023-10-31T19:47:24;96813.56;;;7.62;100.00
62025;BME280;47978;49.118;12.146;2023-10-31T19:51:25;96815.41;;;7.66;100.00
62025;BME280;47978;49.118;12.146;2023-10-31T19:55:27;96822.16;;;7.74;100.00
62025;BME280;47978;49.118;12.146;2023-10-31T19:59:30;96828.47;;;7.75;100.00
62025;BME280;47978;49.118;12.146;2023-10-31T20:03:31;96822.03;;;7.79;100.00
62025;BME280;47978;49.118;12.146;2023-10-31T20:07:33;96830.50;;;7.83;100.00
62025;BME280;47978;49.118;12.146;2023-10-31T20:11:35;96829.09;;;7.85;100.00
62025;BME280;47978;49.118;12.146;2023-10-31T20:15:37;96834.09;;;7.97;100.00
62025;BME280;47978;49.118;12.146;2023-10-31T20:19:39;96836.00;;;8.10;100.00
62025;BME280;47978;49.118;12.146;2023-10-31T20:23:40;96847.41;;;8.59;100.00
62025;BME280;47978;49.118;12.146;2023-10-31T20:27:42;96852.63;;;8.97;100.00
62025;BME280;47978;49.118;12.146;2023-10-31T20:31:45;96858.41;;;9.09;100.00
62025;BME280;47978;49.118;12.146;2023-10-31T20:35:47;96861.31;;;9.27;100.00
62025;BME280;47978;49.118;12.146;2023-10-31T20:39:49;96861.75;;;9.42;100.00
62025;BME280;47978;49.118;12.146;2023-10-31T20:43:50;96859.69;;;9.48;100.00
62025;BME280;47978;49.118;12.146;2023-10-31T20:47:53;96861.00;;;9.51;100.00
62025;BME280;47978;49.118;12.146;2023-10-31T20:51:55;96855.78;;;9.49;100.00
62025;BME280;47978;49.118;12.146;2023-10-31T20:55:56;96850.56;;;9.48;100.00
62025;BME280;47978;49.118;12.146;2023-10-31T20:59:58;96850.31;;;9.35;100.00
62025;BME280;47978;49.118;12.146;2023-10-31T21:04:01;96850.59;;;9.25;100.00
62025;BME280;47978;49.118;12.146;2023-10-31T21:08:02;96860.16;;;9.28;100.00
62025;BME280;47978;49.118;12.146;2023-10-31T21:12:04;96868.81;;;9.35;100.00